sensor_id;sensor_type;location;lat;lon;timestamp;pressure;altitude;pressure_sealevel;temperature
53412;BMP280;39307;52.870;13.660;2022-10-16T00:00:39;100556.31;;;13.75
53412;BMP280;39307;52.870;13.660;2022-10-16T00:03:07;100558.34;;;13.73
53412;BMP280;39307;52.870;13.660;2022-10-16T00:05:41;100554.91;;;13.73
53412;BMP280;39307;52.870;13.660;2022-10-16T00:08:09;100553.91;;;13.74
53412;BMP280;39307;52.870;13.660;2022-10-16T00:10:35;100571.31;;;13.68
53412;BMP280;39307;52.870;13.660;2022-10-16T00:13:02;100562.00;;;13.66
53412;BMP280;39307;52.870;13.660;2022-10-16T00:15:28;100576.19;;;13.65
53412;BMP280;39307;52.870;13.660;2022-10-16T00:17:55;100574.16;;;13.67
53412;BMP280;39307;52.870;13.660;2022-10-16T00:20:21;100574.56;;;13.64
53412;BMP280;39307;52.870;13.660;2022-10-16T00:22:47;100564.03;;;13.64
53412;BMP280;39307;52.870;13.660;2022-10-16T00:25:13;100570.53;;;13.68
53412;BMP280;39307;52.870;13.660;2022-10-16T00:27:39;100578.19;;;13.69
53412;BMP280;39307;52.870;13.660;2022-10-16T00:30:06;100575.78;;;13.68
53412;BMP280;39307;52.870;13.660;2022-10-16T00:32:33;100578.19;;;13.69
53412;BMP280;39307;52.870;13.660;2022-10-16T00:34:59;100573.53;;;13.71
53412;BMP280;39307;52.870;13.660;2022-10-16T00:37:25;100586.47;;;13.73
53412;BMP280;39307;52.870;13.660;2022-10-16T00:39:51;100577.38;;;13.75
53412;BMP280;39307;52.870;13.660;2022-10-16T00:42:18;100571.50;;;13.80
53412;BMP280;39307;52.870;13.660;2022-10-16T00:44:56;100586.47;;;13.79
53412;BMP280;39307;52.870;13.660;2022-10-16T00:47:30;100590.09;;;13.84
53412;BMP280;39307;52.870;13.660;2022-10-16T00:50:13;100581.78;;;13.87
53412;BMP280;39307;52.870;13.660;2022-10-16T00:52:46;100576.53;;;13.87
53412;BMP280;39307;52.870;13.660;2022-10-16T00:55:12;100582.81;;;13.86
53412;BMP280;39307;52.870;13.660;2022-10-16T00:57:39;100580.34;;;13.91
53412;BMP280;39307;52.870;13.660;2022-10-16T01:00:08;100578.13;;;13.88
53412;BMP280;39307;52.870;13.660;2022-10-16T01:02:35;100580.75;;;13.88
53412;BMP280;39307;52.870;13.660;2022-10-16T01:05:02;100592.31;;;13.87
53412;BMP280;39307;52.870;13.660;2022-10-16T01:08:03;100591.72;;;13.92
53412;BMP280;39307;52.870;13.660;2022-10-16T01:10:51;100593.09;;;13.94
53412;BMP280;39307;52.870;13.660;2022-10-16T01:13:42;100609.53;;;13.96
53412;BMP280;39307;52.870;13.660;2022-10-16T01:16:24;100605.69;;;13.99
53412;BMP280;39307;52.870;13.660;2022-10-16T01:19:01;100594.34;;;13.98
53412;BMP280;39307;52.870;13.660;2022-10-16T01:21:38;100598.19;;;13.96
53412;BMP280;39307;52.870;13.660;2022-10-16T01:24:24;100601.03;;;14.01
53412;BMP280;39307;52.870;13.660;2022-10-16T01:27:17;100611.75;;;13.99
53412;BMP280;39307;52.870;13.660;2022-10-16T01:35:29;100599.38;;;14.06
53412;BMP280;39307;52.870;13.660;2022-10-16T01:38:08;100601.00;;;14.07
53412;BMP280;39307;52.870;13.660;2022-10-16T01:40:41;100607.88;;;14.08
53412;BMP280;39307;52.870;13.660;2022-10-16T01:43:24;100607.88;;;14.08
53412;BMP280;39307;52.870;13.660;2022-10-16T01:45:53;100614.16;;;14.07
53412;BMP280;39307;52.870;13.660;2022-10-16T01:48:21;100619.00;;;14.10
53412;BMP280;39307;52.870;13.660;2022-10-16T01:51:15;100624.44;;;14.15
53412;BMP280;39307;52.870;13.660;2022-10-16T01:53:46;100623.88;;;14.13
53412;BMP280;39307;52.870;13.660;2022-10-16T01:56:15;100618.78;;;14.18
53412;BMP280;39307;52.870;13.660;2022-10-16T01:58:53;100619.81;;;14.17
53412;BMP280;39307;52.870;13.660;2022-10-16T02:01:22;100616.91;;;14.25
53412;BMP280;39307;52.870;13.660;2022-10-16T02:03:54;100628.69;;;14.22
53412;BMP280;39307;52.870;13.660;2022-10-16T02:06:22;100627.06;;;14.21
53412;BMP280;39307;52.870;13.660;2022-10-16T02:08:48;100627.06;;;14.21
53412;BMP280;39307;52.870;13.660;2022-10-16T02:11:15;100632.13;;;14.23
53412;BMP280;39307;52.870;13.660;2022-10-16T02:13:52;100623.41;;;14.29
53412;BMP280;39307;52.870;13.660;2022-10-16T02:16:19;100639.38;;;14.34
53412;BMP280;39307;52.870;13.660;2022-10-16T02:18:45;100641.41;;;14.32
53412;BMP280;39307;52.870;13.660;2022-10-16T02:21:33;100642.41;;;14.31
53412;BMP280;39307;52.870;13.660;2022-10-16T02:24:28;100626.41;;;14.32
53412;BMP280;39307;52.870;13.660;2022-10-16T02:27:08;100646.84;;;14.37
53412;BMP280;39307;52.870;13.660;2022-10-16T02:29:45;100636.53;;;14.35
53412;BMP280;39307;52.870;13.660;2022-10-16T02:32:17;100640.63;;;14.31
53412;BMP280;39307;52.870;13.660;2022-10-16T02:34:48;100639.78;;;14.31
53412;BMP280;39307;52.870;13.660;2022-10-16T02:37:16;100637.97;;;14.31
53412;BMP280;39307;52.870;13.660;2022-10-16T02:39:43;100650.13;;;14.32
53412;BMP280;39307;52.870;13.660;2022-10-16T02:42:12;100652.94;;;14.31
53412;BMP280;39307;52.870;13.660;2022-10-16T02:44:39;100669.34;;;14.33
53412;BMP280;39307;52.870;13.660;2022-10-16T02:47:05;100657.59;;;14.35
53412;BMP280;39307;52.870;13.660;2022-10-16T02:49:32;100654.34;;;14.40
53412;BMP280;39307;52.870;13.660;2022-10-16T02:51:58;100659.81;;;14.38
53412;BMP280;39307;52.870;13.660;2022-10-16T02:54:24;100659.44;;;14.35
53412;BMP280;39307;52.870;13.660;2022-10-16T02:56:50;100656.97;;;14.40
53412;BMP280;39307;52.870;13.660;2022-10-16T02:59:16;100674.81;;;14.38
53412;BMP280;39307;52.870;13.660;2022-10-16T03:01:43;100674.22;;;14.36
53412;BMP280;39307;52.870;13.660;2022-10-16T03:04:09;100682.09;;;14.36
53412;BMP280;39307;52.870;13.660;2022-10-16T03:06:35;100687.38;;;14.36
53412;BMP280;39307;52.870;13.660;2022-10-16T03:09:01;100676.66;;;14.37
53412;BMP280;39307;52.870;13.660;2022-10-16T03:11:27;100675.81;;;14.37
53412;BMP280;39307;52.870;13.660;2022-10-16T03:13:54;100686.34;;;14.37
53412;BMP280;39307;52.870;13.660;2022-10-16T03:16:20;100688.56;;;14.40
53412;BMP280;39307;52.870;13.660;2022-10-16T03:18:49;100690.00;;;14.36
53412;BMP280;39307;52.870;13.660;2022-10-16T03:21:16;100696.09;;;14.36
53412;BMP280;39307;52.870;13.660;2022-10-16T03:23:42;100700.75;;;14.28
53412;BMP280;39307;52.870;13.660;2022-10-16T03:26:08;100701.16;;;14.25
53412;BMP280;39307;52.870;13.660;2022-10-16T03:28:35;100699.38;;;14.25
53412;BMP280;39307;52.870;13.660;2022-10-16T03:31:01;100707.47;;;14.24
53412;BMP280;39307;52.870;13.660;2022-10-16T03:33:27;100712.72;;;14.24
53412;BMP280;39307;52.870;13.660;2022-10-16T03:35:54;100708.50;;;14.23
53412;BMP280;39307;52.870;13.660;2022-10-16T03:38:20;100697.72;;;14.24
53412;BMP280;39307;52.870;13.660;2022-10-16T03:40:47;100695.91;;;14.25
53412;BMP280;39307;52.870;13.660;2022-10-16T03:43:13;100703.22;;;14.23
53412;BMP280;39307;52.870;13.660;2022-10-16T03:45:39;100695.91;;;14.25
53412;BMP280;39307;52.870;13.660;2022-10-16T03:48:06;100698.34;;;14.26
53412;BMP280;39307;52.870;13.660;2022-10-16T03:50:32;100710.72;;;14.26
53412;BMP280;39307;52.870;13.660;2022-10-16T03:52:58;100717.81;;;14.25
53412;BMP280;39307;52.870;13.660;2022-10-16T03:55:24;100709.66;;;14.33
53412;BMP280;39307;52.870;13.660;2022-10-16T03:57:51;100717.16;;;14.30
53412;BMP280;39307;52.870;13.660;2022-10-16T04:00:17;100725.09;;;14.23
53412;BMP280;39307;52.870;13.660;2022-10-16T04:02:43;100731.00;;;14.19
53412;BMP280;39307;52.870;13.660;2022-10-16T04:05:10;100723.91;;;14.13
53412;BMP280;39307;52.870;13.660;2022-10-16T04:07:36;100719.84;;;14.11
53412;BMP280;39307;52.870;13.660;2022-10-16T04:10:02;100719.25;;;14.09
53412;BMP280;39307;52.870;13.660;2022-10-16T04:12:29;100722.25;;;14.12
53412;BMP280;39307;52.870;13.660;2022-10-16T04:14:55;100717.41;;;14.09
53412;BMP280;39307;52.870;13.660;2022-10-16T04:17:22;100741.09;;;14.09
53412;BMP280;39307;52.870;13.660;2022-10-16T04:19:48;100745.38;;;14.10
53412;BMP280;39307;52.870;13.660;2022-10-16T04:22:14;100738.88;;;14.06
53412;BMP280;39307;52.870;13.660;2022-10-16T04:24:40;100719.88;;;14.04
53412;BMP280;39307;52.870;13.660;2022-10-16T04:27:07;100730.81;;;14.01
53412;BMP280;39307;52.870;13.660;2022-10-16T04:29:34;100725.94;;;13.98
53412;BMP280;39307;52.870;13.660;2022-10-16T04:32:01;100738.31;;;13.98
53412;BMP280;39307;52.870;13.660;2022-10-16T04:34:27;100756.72;;;13.98
53412;BMP280;39307;52.870;13.660;2022-10-16T04:36:53;100747.19;;;13.97
53412;BMP280;39307;52.870;13.660;2022-10-16T04:39:19;100737.84;;;13.94
53412;BMP280;39307;52.870;13.660;2022-10-16T04:41:45;100747.78;;;13.92
53412;BMP280;39307;52.870;13.660;2022-10-16T04:44:12;100752.44;;;13.90
53412;BMP280;39307;52.870;13.660;2022-10-16T04:46:38;100756.88;;;13.90
53412;BMP280;39307;52.870;13.660;2022-10-16T04:49:04;100749.59;;;13.85
53412;BMP280;39307;52.870;13.660;2022-10-16T04:51:30;100747.97;;;13.84
53412;BMP280;39307;52.870;13.660;2022-10-16T04:53:56;100763.16;;;13.89
53412;BMP280;39307;52.870;13.660;2022-10-16T04:56:23;100753.06;;;13.86
53412;BMP280;39307;52.870;13.660;2022-10-16T04:58:49;100751.81;;;13.88
53412;BMP280;39307;52.870;13.660;2022-10-16T05:01:15;100753.06;;;13.86
53412;BMP280;39307;52.870;13.660;2022-10-16T05:03:41;100761.13;;;13.84
53412;BMP280;39307;52.870;13.660;2022-10-16T05:06:07;100754.25;;;13.77
53412;BMP280;39307;52.870;13.660;2022-10-16T05:08:34;100751.22;;;13.74
53412;BMP280;39307;52.870;13.660;2022-10-16T05:11:00;100750.00;;;13.70
53412;BMP280;39307;52.870;13.660;2022-10-16T05:13:26;100748.38;;;13.75
53412;BMP280;39307;52.870;13.660;2022-10-16T05:15:52;100759.94;;;13.68
53412;BMP280;39307;52.870;13.660;2022-10-16T05:18:19;100776.69;;;13.60
53412;BMP280;39307;52.870;13.660;2022-10-16T05:20:45;100776.28;;;13.57
53412;BMP280;39307;52.870;13.660;2022-10-16T05:23:11;100779.31;;;13.60
53412;BMP280;39307;52.870;13.660;2022-10-16T05:25:37;100771.66;;;13.53
53412;BMP280;39307;52.870;13.660;2022-10-16T05:28:03;100781.13;;;13.47
53412;BMP280;39307;52.870;13.660;2022-10-16T05:30:30;100786.16;;;13.42
53412;BMP280;39307;52.870;13.660;2022-10-16T05:32:56;100794.47;;;13.39
53412;BMP280;39307;52.870;13.660;2022-10-16T05:35:22;100790.22;;;13.38
53412;BMP280;39307;52.870;13.660;2022-10-16T05:37:48;100778.50;;;13.41
53412;BMP280;39307;52.870;13.660;2022-10-16T05:40:15;100785.19;;;13.43
53412;BMP280;39307;52.870;13.660;2022-10-16T05:42:41;100789.84;;;13.48
53412;BMP280;39307;52.870;13.660;2022-10-16T05:45:09;100790.63;;;13.48
53412;BMP280;39307;52.870;13.660;2022-10-16T05:47:36;100808.03;;;13.49
53412;BMP280;39307;52.870;13.660;2022-10-16T05:50:02;100799.94;;;13.51
53412;BMP280;39307;52.870;13.660;2022-10-16T05:52:29;100809.47;;;13.52
53412;BMP280;39307;52.870;13.660;2022-10-16T05:54:55;100803.19;;;13.46
53412;BMP280;39307;52.870;13.660;2022-10-16T05:57:21;100801.94;;;13.42
53412;BMP280;39307;52.870;13.660;2022-10-16T05:59:47;100812.47;;;13.42
53412;BMP280;39307;52.870;13.660;2022-10-16T06:02:14;100813.28;;;13.43
53412;BMP280;39307;52.870;13.660;2022-10-16T06:04:40;100805.19;;;13.38
53412;BMP280;39307;52.870;13.660;2022-10-16T06:07:06;100810.06;;;13.41
53412;BMP280;39307;52.870;13.660;2022-10-16T06:09:32;100815.09;;;13.42
53412;BMP280;39307;52.870;13.660;2022-10-16T06:11:58;100811.50;;;13.50
53412;BMP280;39307;52.870;13.660;2022-10-16T06:14:24;100825.84;;;13.47
53412;BMP280;39307;52.870;13.660;2022-10-16T06:16:50;100823.78;;;13.43
53412;BMP280;39307;52.870;13.660;2022-10-16T06:19:17;100818.53;;;13.49
53412;BMP280;39307;52.870;13.660;2022-10-16T06:21:43;100819.38;;;13.50
53412;BMP280;39307;52.870;13.660;2022-10-16T06:24:09;100830.91;;;13.55
53412;BMP280;39307;52.870;13.660;2022-10-16T06:26:36;100834.16;;;13.51
53412;BMP280;39307;52.870;13.660;2022-10-16T06:29:03;100842.22;;;13.49
53412;BMP280;39307;52.870;13.660;2022-10-16T06:31:29;100838.78;;;13.49
53412;BMP280;39307;52.870;13.660;2022-10-16T06:33:56;100846.28;;;13.52
53412;BMP280;39307;52.870;13.660;2022-10-16T06:36:23;100839.22;;;13.58
53412;BMP280;39307;52.870;13.660;2022-10-16T06:38:50;100834.38;;;13.62
53412;BMP280;39307;52.870;13.660;2022-10-16T06:41:18;100836.63;;;13.65
53412;BMP280;39307;52.870;13.660;2022-10-16T06:43:45;100841.06;;;13.64
53412;BMP280;39307;52.870;13.660;2022-10-16T06:46:12;100850.38;;;13.67
53412;BMP280;39307;52.870;13.660;2022-10-16T06:48:39;100855.22;;;13.70
53412;BMP280;39307;52.870;13.660;2022-10-16T06:51:09;100866.56;;;13.70
53412;BMP280;39307;52.870;13.660;2022-10-16T06:53:38;100876.91;;;13.72
53412;BMP280;39307;52.870;13.660;2022-10-16T06:56:15;100872.22;;;13.67
53412;BMP280;39307;52.870;13.660;2022-10-16T06:58:43;100873.63;;;13.70
53412;BMP280;39307;52.870;13.660;2022-10-16T07:01:10;100859.09;;;13.74
53412;BMP280;39307;52.870;13.660;2022-10-16T07:03:38;100865.56;;;13.78
53412;BMP280;39307;52.870;13.660;2022-10-16T07:06:05;100875.09;;;13.79
53412;BMP280;39307;52.870;13.660;2022-10-16T07:08:36;100872.84;;;13.76
53412;BMP280;39307;52.870;13.660;2022-10-16T07:11:05;100876.09;;;13.78
53412;BMP280;39307;52.870;13.660;2022-10-16T07:13:36;100874.50;;;13.83
53412;BMP280;39307;52.870;13.660;2022-10-16T07:16:11;100886.84;;;13.89
53412;BMP280;39307;52.870;13.660;2022-10-16T07:18:38;100892.16;;;13.95
53412;BMP280;39307;52.870;13.660;2022-10-16T07:21:10;100893.59;;;13.98
53412;BMP280;39307;52.870;13.660;2022-10-16T07:23:37;100897.22;;;14.03
53412;BMP280;39307;52.870;13.660;2022-10-16T07:26:04;100903.72;;;14.14
53412;BMP280;39307;52.870;13.660;2022-10-16T07:28:31;100902.94;;;14.19
53412;BMP280;39307;52.870;13.660;2022-10-16T07:31:05;100913.06;;;14.29
53412;BMP280;39307;52.870;13.660;2022-10-16T07:33:32;100916.91;;;14.33
53412;BMP280;39307;52.870;13.660;2022-10-16T07:35:59;100914.66;;;14.36
53412;BMP280;39307;52.870;13.660;2022-10-16T07:38:25;100903.94;;;14.38
53412;BMP280;39307;52.870;13.660;2022-10-16T07:41:05;100899.50;;;14.44
53412;BMP280;39307;52.870;13.660;2022-10-16T07:43:32;100898.47;;;14.45
53412;BMP280;39307;52.870;13.660;2022-10-16T07:45:59;100892.78;;;14.48
53412;BMP280;39307;52.870;13.660;2022-10-16T07:48:29;100902.50;;;14.54
53412;BMP280;39307;52.870;13.660;2022-10-16T07:51:00;100909.00;;;14.58
53412;BMP280;39307;52.870;13.660;2022-10-16T07:53:27;100913.84;;;14.61
53412;BMP280;39307;52.870;13.660;2022-10-16T07:56:02;100921.97;;;14.66
53412;BMP280;39307;52.870;13.660;2022-10-16T07:58:28;100917.91;;;14.70
53412;BMP280;39307;52.870;13.660;2022-10-16T08:00:55;100919.31;;;14.72
53412;BMP280;39307;52.870;13.660;2022-10-16T08:03:21;100917.31;;;14.74
53412;BMP280;39307;52.870;13.660;2022-10-16T08:05:48;100913.84;;;14.80
53412;BMP280;39307;52.870;13.660;2022-10-16T08:08:15;100909.56;;;14.92
53412;BMP280;39307;52.870;13.660;2022-10-16T08:10:42;100907.34;;;14.96
53412;BMP280;39307;52.870;13.660;2022-10-16T08:13:07;100910.97;;;15.01
53412;BMP280;39307;52.870;13.660;2022-10-16T08:15:34;100912.59;;;15.08
53412;BMP280;39307;52.870;13.660;2022-10-16T08:18:04;100915.00;;;15.23
53412;BMP280;39307;52.870;13.660;2022-10-16T08:20:32;100914.16;;;15.35
53412;BMP280;39307;52.870;13.660;2022-10-16T08:23:02;100917.94;;;15.45
53412;BMP280;39307;52.870;13.660;2022-10-16T08:25:28;100929.31;;;15.46
53412;BMP280;39307;52.870;13.660;2022-10-16T08:27:55;100920.19;;;15.48
53412;BMP280;39307;52.870;13.660;2022-10-16T08:30:23;100916.31;;;15.51
53412;BMP280;39307;52.870;13.660;2022-10-16T08:32:49;100917.69;;;15.59
53412;BMP280;39307;52.870;13.660;2022-10-16T08:35:16;100910.97;;;15.63
53412;BMP280;39307;52.870;13.660;2022-10-16T08:37:42;100907.06;;;15.72
53412;BMP280;39307;52.870;13.660;2022-10-16T08:40:28;100906.41;;;15.83
53412;BMP280;39307;52.870;13.660;2022-10-16T08:48:44;100928.59;;;16.06
53412;BMP280;39307;52.870;13.660;2022-10-16T08:51:26;100924.72;;;16.09
53412;BMP280;39307;52.870;13.660;2022-10-16T08:53:59;100928.34;;;16.20
53412;BMP280;39307;52.870;13.660;2022-10-16T08:56:28;100932.59;;;16.21
53412;BMP280;39307;52.870;13.660;2022-10-16T08:58:54;100931.75;;;16.27
53412;BMP280;39307;52.870;13.660;2022-10-16T09:01:37;100930.72;;;16.28
53412;BMP280;39307;52.870;13.660;2022-10-16T09:06:58;100941.91;;;16.54
53412;BMP280;39307;52.870;13.660;2022-10-16T09:09:33;100929.91;;;16.52
53412;BMP280;39307;52.870;13.660;2022-10-16T09:12:22;100941.84;;;16.61
53412;BMP280;39307;52.870;13.660;2022-10-16T09:20:19;100942.38;;;16.69
53412;BMP280;39307;52.870;13.660;2022-10-16T09:22:47;100931.16;;;16.74
53412;BMP280;39307;52.870;13.660;2022-10-16T09:25:18;100933.53;;;16.81
53412;BMP280;39307;52.870;13.660;2022-10-16T09:27:48;100958.34;;;16.80
53412;BMP280;39307;52.870;13.660;2022-10-16T09:30:20;100941.63;;;16.86
53412;BMP280;39307;52.870;13.660;2022-10-16T09:32:50;100944.84;;;16.88
53412;BMP280;39307;52.870;13.660;2022-10-16T09:35:21;100943.66;;;16.84
53412;BMP280;39307;52.870;13.660;2022-10-16T09:37:51;100947.59;;;17.00
53412;BMP280;39307;52.870;13.660;2022-10-16T09:40:30;100951.47;;;16.97
53412;BMP280;39307;52.870;13.660;2022-10-16T09:45:41;100964.19;;;17.06
53412;BMP280;39307;52.870;13.660;2022-10-16T09:48:12;100961.94;;;17.10
53412;BMP280;39307;52.870;13.660;2022-10-16T09:50:38;100964.16;;;17.13
53412;BMP280;39307;52.870;13.660;2022-10-16T09:53:12;100963.78;;;17.09
53412;BMP280;39307;52.870;13.660;2022-10-16T09:55:53;100966.22;;;17.11
53412;BMP280;39307;52.870;13.660;2022-10-16T09:58:23;100976.94;;;17.16
53412;BMP280;39307;52.870;13.660;2022-10-16T10:00:51;100972.63;;;17.21
53412;BMP280;39307;52.870;13.660;2022-10-16T10:03:37;100971.75;;;17.27
53412;BMP280;39307;52.870;13.660;2022-10-16T10:06:29;100981.09;;;17.30
53412;BMP280;39307;52.870;13.660;2022-10-16T10:08:59;100983.84;;;17.41
53412;BMP280;39307;52.870;13.660;2022-10-16T10:17:19;100977.16;;;17.85
53412;BMP280;39307;52.870;13.660;2022-10-16T10:19:58;100988.34;;;18.05
53412;BMP280;39307;52.870;13.660;2022-10-16T10:22:44;100979.81;;;18.32
53412;BMP280;39307;52.870;13.660;2022-10-16T10:28:10;100977.09;;;18.50
53412;BMP280;39307;52.870;13.660;2022-10-16T10:31:06;100978.75;;;18.73
53412;BMP280;39307;52.870;13.660;2022-10-16T10:34:14;100988.66;;;18.66
53412;BMP280;39307;52.870;13.660;2022-10-16T10:36:37;101000.09;;;18.78
53412;BMP280;39307;52.870;13.660;2022-10-16T10:39:39;100987.53;;;18.85
53412;BMP280;39307;52.870;13.660;2022-10-16T10:42:38;100990.75;;;18.76
53412;BMP280;39307;52.870;13.660;2022-10-16T10:45:27;100984.84;;;18.74
53412;BMP280;39307;52.870;13.660;2022-10-16T10:51:46;100985.31;;;18.71
53412;BMP280;39307;52.870;13.660;2022-10-16T10:57:02;100985.03;;;18.90
53412;BMP280;39307;52.870;13.660;2022-10-16T10:59:59;100989.41;;;18.96
53412;BMP280;39307;52.870;13.660;2022-10-16T11:05:59;100985.28;;;19.22
53412;BMP280;39307;52.870;13.660;2022-10-16T11:08:27;100980.06;;;19.27
53412;BMP280;39307;52.870;13.660;2022-10-16T11:11:24;100993.25;;;19.22
53412;BMP280;39307;52.870;13.660;2022-10-16T11:21:47;100994.59;;;19.47
53412;BMP280;39307;52.870;13.660;2022-10-16T11:24:23;100988.81;;;19.50
53412;BMP280;39307;52.870;13.660;2022-10-16T11:26:52;100994.22;;;19.55
53412;BMP280;39307;52.870;13.660;2022-10-16T11:29:26;100988.00;;;19.50
53412;BMP280;39307;52.870;13.660;2022-10-16T11:32:06;100991.13;;;19.47
53412;BMP280;39307;52.870;13.660;2022-10-16T11:34:50;100998.63;;;19.50
53412;BMP280;39307;52.870;13.660;2022-10-16T11:37:25;100993.16;;;19.67
53412;BMP280;39307;52.870;13.660;2022-10-16T11:40:00;100995.72;;;19.63
53412;BMP280;39307;52.870;13.660;2022-10-16T11:42:41;100990.41;;;19.63
53412;BMP280;39307;52.870;13.660;2022-10-16T11:48:35;100975.84;;;19.76
53412;BMP280;39307;52.870;13.660;2022-10-16T11:51:42;100983.25;;;19.74
53412;BMP280;39307;52.870;13.660;2022-10-16T11:54:29;100986.69;;;19.86
53412;BMP280;39307;52.870;13.660;2022-10-16T11:57:08;100991.84;;;19.93
53412;BMP280;39307;52.870;13.660;2022-10-16T12:00:02;100998.13;;;19.87
53412;BMP280;39307;52.870;13.660;2022-10-16T12:08:13;100996.38;;;19.92
53412;BMP280;39307;52.870;13.660;2022-10-16T12:10:43;101001.22;;;19.95
53412;BMP280;39307;52.870;13.660;2022-10-16T12:13:28;101003.28;;;19.93
53412;BMP280;39307;52.870;13.660;2022-10-16T12:18:43;100988.28;;;20.15
53412;BMP280;39307;52.870;13.660;2022-10-16T12:21:11;100997.97;;;20.21
53412;BMP280;39307;52.870;13.660;2022-10-16T12:23:49;100998.47;;;20.34
53412;BMP280;39307;52.870;13.660;2022-10-16T12:26:25;100998.59;;;20.39
53412;BMP280;39307;52.870;13.660;2022-10-16T12:28:53;100998.81;;;20.37
53412;BMP280;39307;52.870;13.660;2022-10-16T12:31:19;101011.63;;;20.40
53412;BMP280;39307;52.870;13.660;2022-10-16T12:33:59;101008.00;;;20.46
53412;BMP280;39307;52.870;13.660;2022-10-16T12:36:32;101009.91;;;20.34
53412;BMP280;39307;52.870;13.660;2022-10-16T12:39:00;101001.13;;;20.34
53412;BMP280;39307;52.870;13.660;2022-10-16T12:43:55;101005.91;;;20.59
53412;BMP280;39307;52.870;13.660;2022-10-16T12:46:36;101016.09;;;20.51
53412;BMP280;39307;52.870;13.660;2022-10-16T12:49:23;101017.66;;;20.36
53412;BMP280;39307;52.870;13.660;2022-10-16T12:51:56;101026.22;;;20.38
53412;BMP280;39307;52.870;13.660;2022-10-16T12:54:40;101031.44;;;20.33
53412;BMP280;39307;52.870;13.660;2022-10-16T13:23:02;101060.50;;;19.73
53412;BMP280;39307;52.870;13.660;2022-10-16T13:28:03;101072.94;;;19.61
53412;BMP280;39307;52.870;13.660;2022-10-16T13:30:36;101085.56;;;19.54
53412;BMP280;39307;52.870;13.660;2022-10-16T13:36:01;101077.94;;;19.69
53412;BMP280;39307;52.870;13.660;2022-10-16T13:38:34;101090.66;;;19.56
53412;BMP280;39307;52.870;13.660;2022-10-16T13:41:06;101087.88;;;19.51
53412;BMP280;39307;52.870;13.660;2022-10-16T13:43:46;101088.09;;;19.49
53412;BMP280;39307;52.870;13.660;2022-10-16T13:46:16;101084.50;;;19.55
53412;BMP280;39307;52.870;13.660;2022-10-16T13:48:43;101089.13;;;19.60
53412;BMP280;39307;52.870;13.660;2022-10-16T13:51:14;101069.72;;;19.70
53412;BMP280;39307;52.870;13.660;2022-10-16T13:53:41;101073.53;;;19.63
53412;BMP280;39307;52.870;13.660;2022-10-16T13:56:14;101075.03;;;19.70
53412;BMP280;39307;52.870;13.660;2022-10-16T13:58:41;101078.72;;;19.69
53412;BMP280;39307;52.870;13.660;2022-10-16T14:01:20;101079.44;;;19.65
53412;BMP280;39307;52.870;13.660;2022-10-16T14:03:49;101077.34;;;19.67
53412;BMP280;39307;52.870;13.660;2022-10-16T14:06:20;101092.13;;;19.63
53412;BMP280;39307;52.870;13.660;2022-10-16T14:08:57;101086.34;;;19.55
53412;BMP280;39307;52.870;13.660;2022-10-16T14:11:25;101088.09;;;19.49
53412;BMP280;39307;52.870;13.660;2022-10-16T14:13:52;101094.44;;;19.48
53412;BMP280;39307;52.870;13.660;2022-10-16T14:16:23;101099.53;;;19.38
53412;BMP280;39307;52.870;13.660;2022-10-16T14:19:00;101102.75;;;19.29
53412;BMP280;39307;52.870;13.660;2022-10-16T14:21:26;101106.66;;;19.27
53412;BMP280;39307;52.870;13.660;2022-10-16T14:23:53;101109.78;;;19.24
53412;BMP280;39307;52.870;13.660;2022-10-16T14:26:23;101118.97;;;19.10
53412;BMP280;39307;52.870;13.660;2022-10-16T14:29:10;101106.53;;;19.10
53412;BMP280;39307;52.870;13.660;2022-10-16T14:31:37;101123.72;;;19.08
53412;BMP280;39307;52.870;13.660;2022-10-16T14:34:03;101114.84;;;19.14
53412;BMP280;39307;52.870;13.660;2022-10-16T14:36:30;101133.75;;;19.06
53412;BMP280;39307;52.870;13.660;2022-10-16T14:39:19;101133.72;;;18.95
53412;BMP280;39307;52.870;13.660;2022-10-16T14:41:50;101132.09;;;18.94
53412;BMP280;39307;52.870;13.660;2022-10-16T14:44:18;101141.63;;;18.83
53412;BMP280;39307;52.870;13.660;2022-10-16T14:46:46;101142.38;;;18.73
53412;BMP280;39307;52.870;13.660;2022-10-16T14:51:39;101139.72;;;18.73
53412;BMP280;39307;52.870;13.660;2022-10-16T14:54:09;101150.72;;;18.58
53412;BMP280;39307;52.870;13.660;2022-10-16T14:56:51;101150.81;;;18.52
53412;BMP280;39307;52.870;13.660;2022-10-16T14:59:37;101156.88;;;18.41
53412;BMP280;39307;52.870;13.660;2022-10-16T15:02:32;101156.22;;;18.28
53412;BMP280;39307;52.870;13.660;2022-10-16T15:05:13;101163.94;;;18.12
53412;BMP280;39307;52.870;13.660;2022-10-16T15:07:40;101166.00;;;18.10
53412;BMP280;39307;52.870;13.660;2022-10-16T15:10:06;101177.63;;;18.09
53412;BMP280;39307;52.870;13.660;2022-10-16T15:12:33;101174.97;;;18.09
53412;BMP280;39307;52.870;13.660;2022-10-16T15:14:59;101180.41;;;17.96
53412;BMP280;39307;52.870;13.660;2022-10-16T15:17:25;101177.22;;;17.88
53412;BMP280;39307;52.870;13.660;2022-10-16T15:19:51;101178.09;;;17.82
53412;BMP280;39307;52.870;13.660;2022-10-16T15:22:18;101176.09;;;17.77
53412;BMP280;39307;52.870;13.660;2022-10-16T15:24:44;101178.59;;;17.72
53412;BMP280;39307;52.870;13.660;2022-10-16T15:27:10;101175.75;;;17.67
53412;BMP280;39307;52.870;13.660;2022-10-16T15:29:36;101188.44;;;17.65
53412;BMP280;39307;52.870;13.660;2022-10-16T15:32:03;101184.50;;;17.50
53412;BMP280;39307;52.870;13.660;2022-10-16T15:34:29;101188.84;;;17.38
53412;BMP280;39307;52.870;13.660;2022-10-16T15:36:55;101191.13;;;17.35
53412;BMP280;39307;52.870;13.660;2022-10-16T15:39:21;101194.81;;;17.28
53412;BMP280;39307;52.870;13.660;2022-10-16T15:41:48;101203.63;;;17.22